sensor_id;sensor_type;location;lat;lon;timestamp;P1;durP1;ratioP1;P2;durP2;ratioP2
69534;SDS011;56754;51.568;5.048;2024-01-06T00:01:34;10.40;;;5.32;;
69534;SDS011;56754;51.568;5.048;2024-01-06T00:04:00;10.68;;;5.80;;
69534;SDS011;56754;51.568;5.048;2024-01-06T00:06:25;9.13;;;5.47;;
69534;SDS011;56754;51.568;5.048;2024-01-06T00:08:51;10.52;;;5.78;;
69534;SDS011;56754;51.568;5.048;2024-01-06T00:11:16;10.90;;;6.18;;
69534;SDS011;56754;51.568;5.048;2024-01-06T00:13:41;10.03;;;5.37;;
69534;SDS011;56754;51.568;5.048;2024-01-06T00:16:06;11.45;;;6.00;;
69534;SDS011;56754;51.568;5.048;2024-01-06T00:18:31;10.88;;;6.22;;
69534;SDS011;56754;51.568;5.048;2024-01-06T00:20:56;11.80;;;6.70;;
69534;SDS011;56754;51.568;5.048;2024-01-06T00:23:21;11.60;;;6.33;;
69534;SDS011;56754;51.568;5.048;2024-01-06T00:25:47;10.55;;;6.30;;
69534;SDS011;56754;51.568;5.048;2024-01-06T00:28:12;10.47;;;6.47;;
69534;SDS011;56754;51.568;5.048;2024-01-06T00:30:37;11.00;;;6.25;;
69534;SDS011;56754;51.568;5.048;2024-01-06T00:33:02;10.98;;;6.78;;
69534;SDS011;56754;51.568;5.048;2024-01-06T00:35:27;13.23;;;7.13;;
69534;SDS011;56754;51.568;5.048;2024-01-06T00:37:52;12.23;;;7.38;;
69534;SDS011;56754;51.568;5.048;2024-01-06T00:40:18;13.80;;;7.90;;
69534;SDS011;56754;51.568;5.048;2024-01-06T00:42:43;13.77;;;7.85;;
69534;SDS011;56754;51.568;5.048;2024-01-06T00:45:08;11.97;;;7.50;;
69534;SDS011;56754;51.568;5.048;2024-01-06T00:47:33;14.63;;;8.33;;
69534;SDS011;56754;51.568;5.048;2024-01-06T00:49:58;11.43;;;6.80;;
69534;SDS011;56754;51.568;5.048;2024-01-06T00:52:24;14.07;;;8.00;;
69534;SDS011;56754;51.568;5.048;2024-01-06T00:54:49;13.80;;;8.15;;
69534;SDS011;56754;51.568;5.048;2024-01-06T00:57:14;13.97;;;7.90;;
69534;SDS011;56754;51.568;5.048;2024-01-06T00:59:39;12.63;;;7.37;;
69534;SDS011;56754;51.568;5.048;2024-01-06T01:02:04;13.50;;;8.00;;
69534;SDS011;56754;51.568;5.048;2024-01-06T01:04:32;13.73;;;7.47;;
69534;SDS011;56754;51.568;5.048;2024-01-06T01:06:58;15.10;;;8.30;;
69534;SDS011;56754;51.568;5.048;2024-01-06T01:09:23;14.27;;;7.97;;
69534;SDS011;56754;51.568;5.048;2024-01-06T01:11:48;13.25;;;8.23;;
69534;SDS011;56754;51.568;5.048;2024-01-06T01:14:13;15.68;;;8.85;;
69534;SDS011;56754;51.568;5.048;2024-01-06T01:16:38;15.07;;;8.20;;
69534;SDS011;56754;51.568;5.048;2024-01-06T01:19:03;13.68;;;7.97;;
69534;SDS011;56754;51.568;5.048;2024-01-06T01:21:28;14.02;;;7.95;;
69534;SDS011;56754;51.568;5.048;2024-01-06T01:23:54;12.05;;;6.93;;
69534;SDS011;56754;51.568;5.048;2024-01-06T01:26:19;12.38;;;7.05;;
69534;SDS011;56754;51.568;5.048;2024-01-06T01:28:44;12.70;;;6.90;;
69534;SDS011;56754;51.568;5.048;2024-01-06T01:31:09;12.02;;;6.53;;
69534;SDS011;56754;51.568;5.048;2024-01-06T01:33:34;12.63;;;6.17;;
69534;SDS011;56754;51.568;5.048;2024-01-06T01:35:59;10.75;;;5.63;;
69534;SDS011;56754;51.568;5.048;2024-01-06T01:38:24;10.00;;;5.75;;
69534;SDS011;56754;51.568;5.048;2024-01-06T01:40:49;9.35;;;5.18;;
69534;SDS011;56754;51.568;5.048;2024-01-06T01:43:15;9.27;;;4.80;;
69534;SDS011;56754;51.568;5.048;2024-01-06T01:45:40;9.63;;;5.10;;
69534;SDS011;56754;51.568;5.048;2024-01-06T01:48:06;8.55;;;4.57;;
69534;SDS011;56754;51.568;5.048;2024-01-06T01:50:31;7.97;;;4.50;;
69534;SDS011;56754;51.568;5.048;2024-01-06T01:52:56;7.28;;;4.10;;
69534;SDS011;56754;51.568;5.048;2024-01-06T01:55:22;7.63;;;4.13;;
69534;SDS011;56754;51.568;5.048;2024-01-06T01:57:47;7.87;;;4.00;;
69534;SDS011;56754;51.568;5.048;2024-01-06T02:00:12;6.67;;;3.77;;
69534;SDS011;56754;51.568;5.048;2024-01-06T02:02:38;7.03;;;4.00;;
69534;SDS011;56754;51.568;5.048;2024-01-06T02:05:03;7.50;;;4.10;;
69534;SDS011;56754;51.568;5.048;2024-01-06T02:07:28;7.47;;;3.97;;
69534;SDS011;56754;51.568;5.048;2024-01-06T02:09:53;6.70;;;3.70;;
69534;SDS011;56754;51.568;5.048;2024-01-06T02:12:18;7.50;;;3.67;;
69534;SDS011;56754;51.568;5.048;2024-01-06T02:14:43;6.50;;;3.70;;
69534;SDS011;56754;51.568;5.048;2024-01-06T02:17:09;6.17;;;3.90;;
69534;SDS011;56754;51.568;5.048;2024-01-06T02:19:34;8.00;;;4.47;;
69534;SDS011;56754;51.568;5.048;2024-01-06T02:21:59;7.10;;;4.10;;
69534;SDS011;56754;51.568;5.048;2024-01-06T02:24:24;7.43;;;4.47;;
69534;SDS011;56754;51.568;5.048;2024-01-06T02:26:49;7.28;;;4.00;;
69534;SDS011;56754;51.568;5.048;2024-01-06T02:29:15;7.33;;;4.00;;
69534;SDS011;56754;51.568;5.048;2024-01-06T02:31:40;7.55;;;4.18;;
69534;SDS011;56754;51.568;5.048;2024-01-06T02:34:05;7.22;;;3.97;;
69534;SDS011;56754;51.568;5.048;2024-01-06T02:36:30;7.00;;;3.90;;
69534;SDS011;56754;51.568;5.048;2024-01-06T02:38:55;7.28;;;4.05;;
69534;SDS011;56754;51.568;5.048;2024-01-06T02:41:20;6.82;;;3.72;;
69534;SDS011;56754;51.568;5.048;2024-01-06T02:43:46;6.50;;;3.47;;
69534;SDS011;56754;51.568;5.048;2024-01-06T02:46:11;8.27;;;4.10;;
69534;SDS011;56754;51.568;5.048;2024-01-06T02:48:36;7.30;;;4.07;;
69534;SDS011;56754;51.568;5.048;2024-01-06T02:51:01;7.53;;;4.07;;
69534;SDS011;56754;51.568;5.048;2024-01-06T02:53:27;6.57;;;3.77;;
69534;SDS011;56754;51.568;5.048;2024-01-06T02:55:52;6.95;;;4.00;;
69534;SDS011;56754;51.568;5.048;2024-01-06T02:58:17;7.70;;;4.53;;
69534;SDS011;56754;51.568;5.048;2024-01-06T03:00:42;7.07;;;3.80;;
69534;SDS011;56754;51.568;5.048;2024-01-06T03:03:07;6.20;;;3.17;;
69534;SDS011;56754;51.568;5.048;2024-01-06T03:05:32;6.28;;;3.47;;
69534;SDS011;56754;51.568;5.048;2024-01-06T03:07:57;6.78;;;3.50;;
69534;SDS011;56754;51.568;5.048;2024-01-06T03:10:23;6.87;;;3.50;;
69534;SDS011;56754;51.568;5.048;2024-01-06T03:12:48;6.47;;;3.00;;
69534;SDS011;56754;51.568;5.048;2024-01-06T03:15:13;6.40;;;2.77;;
69534;SDS011;56754;51.568;5.048;2024-01-06T03:17:38;7.20;;;3.17;;
69534;SDS011;56754;51.568;5.048;2024-01-06T03:20:04;6.20;;;3.28;;
69534;SDS011;56754;51.568;5.048;2024-01-06T03:22:29;6.47;;;3.00;;
69534;SDS011;56754;51.568;5.048;2024-01-06T03:24:55;5.47;;;2.80;;
69534;SDS011;56754;51.568;5.048;2024-01-06T03:27:20;5.53;;;2.90;;
69534;SDS011;56754;51.568;5.048;2024-01-06T03:29:45;6.73;;;3.53;;
69534;SDS011;56754;51.568;5.048;2024-01-06T03:32:10;5.78;;;2.83;;
69534;SDS011;56754;51.568;5.048;2024-01-06T03:34:35;5.70;;;3.10;;
69534;SDS011;56754;51.568;5.048;2024-01-06T03:37:00;5.47;;;2.80;;
69534;SDS011;56754;51.568;5.048;2024-01-06T03:39:25;6.32;;;2.60;;
69534;SDS011;56754;51.568;5.048;2024-01-06T03:41:51;5.25;;;2.53;;
69534;SDS011;56754;51.568;5.048;2024-01-06T03:44:16;6.18;;;2.65;;
69534;SDS011;56754;51.568;5.048;2024-01-06T03:46:41;6.10;;;2.55;;
69534;SDS011;56754;51.568;5.048;2024-01-06T03:49:06;6.03;;;2.75;;
69534;SDS011;56754;51.568;5.048;2024-01-06T03:51:31;5.50;;;2.50;;
69534;SDS011;56754;51.568;5.048;2024-01-06T03:53:56;6.15;;;3.15;;
69534;SDS011;56754;51.568;5.048;2024-01-06T03:56:22;6.23;;;2.90;;
69534;SDS011;56754;51.568;5.048;2024-01-06T03:58:47;5.93;;;2.80;;
69534;SDS011;56754;51.568;5.048;2024-01-06T04:01:12;5.47;;;2.63;;
69534;SDS011;56754;51.568;5.048;2024-01-06T04:03:38;6.28;;;3.22;;
69534;SDS011;56754;51.568;5.048;2024-01-06T04:06:03;5.38;;;2.63;;
69534;SDS011;56754;51.568;5.048;2024-01-06T04:08:28;6.30;;;2.90;;
69534;SDS011;56754;51.568;5.048;2024-01-06T04:10:53;5.40;;;2.75;;
69534;SDS011;56754;51.568;5.048;2024-01-06T04:13:19;5.70;;;2.80;;
69534;SDS011;56754;51.568;5.048;2024-01-06T04:15:44;7.10;;;3.07;;
69534;SDS011;56754;51.568;5.048;2024-01-06T04:18:09;6.07;;;3.10;;
69534;SDS011;56754;51.568;5.048;2024-01-06T04:20:34;5.70;;;2.73;;
69534;SDS011;56754;51.568;5.048;2024-01-06T04:22:59;7.33;;;3.00;;
69534;SDS011;56754;51.568;5.048;2024-01-06T04:25:25;5.77;;;3.10;;
69534;SDS011;56754;51.568;5.048;2024-01-06T04:27:50;6.23;;;2.93;;
69534;SDS011;56754;51.568;5.048;2024-01-06T04:30:15;6.73;;;3.70;;
69534;SDS011;56754;51.568;5.048;2024-01-06T04:32:40;6.83;;;3.50;;
69534;SDS011;56754;51.568;5.048;2024-01-06T04:35:06;6.90;;;3.13;;
69534;SDS011;56754;51.568;5.048;2024-01-06T04:37:31;6.10;;;3.50;;
69534;SDS011;56754;51.568;5.048;2024-01-06T04:39:56;6.85;;;3.60;;
69534;SDS011;56754;51.568;5.048;2024-01-06T04:42:22;7.00;;;3.20;;
69534;SDS011;56754;51.568;5.048;2024-01-06T04:44:47;6.82;;;3.50;;
69534;SDS011;56754;51.568;5.048;2024-01-06T04:47:12;6.93;;;3.40;;
69534;SDS011;56754;51.568;5.048;2024-01-06T04:49:37;6.33;;;3.40;;
69534;SDS011;56754;51.568;5.048;2024-01-06T04:52:02;7.18;;;3.50;;
69534;SDS011;56754;51.568;5.048;2024-01-06T04:54:28;6.57;;;3.50;;
69534;SDS011;56754;51.568;5.048;2024-01-06T04:56:53;5.97;;;3.38;;
69534;SDS011;56754;51.568;5.048;2024-01-06T04:59:18;6.20;;;3.13;;
69534;SDS011;56754;51.568;5.048;2024-01-06T05:01:43;6.15;;;3.08;;
69534;SDS011;56754;51.568;5.048;2024-01-06T05:04:08;7.63;;;3.50;;
69534;SDS011;56754;51.568;5.048;2024-01-06T05:06:33;6.55;;;3.45;;
69534;SDS011;56754;51.568;5.048;2024-01-06T05:08:59;6.15;;;3.25;;
69534;SDS011;56754;51.568;5.048;2024-01-06T05:11:24;5.55;;;3.00;;
69534;SDS011;56754;51.568;5.048;2024-01-06T05:13:49;5.80;;;3.50;;
69534;SDS011;56754;51.568;5.048;2024-01-06T05:16:14;6.73;;;3.23;;
69534;SDS011;56754;51.568;5.048;2024-01-06T05:18:39;7.33;;;2.93;;
69534;SDS011;56754;51.568;5.048;2024-01-06T05:21:04;6.20;;;2.90;;
69534;SDS011;56754;51.568;5.048;2024-01-06T05:23:29;5.80;;;3.10;;
69534;SDS011;56754;51.568;5.048;2024-01-06T05:25:55;5.33;;;2.90;;
69534;SDS011;56754;51.568;5.048;2024-01-06T05:28:20;6.07;;;3.17;;
69534;SDS011;56754;51.568;5.048;2024-01-06T05:30:45;5.73;;;2.73;;
69534;SDS011;56754;51.568;5.048;2024-01-06T05:33:10;6.03;;;2.53;;
69534;SDS011;56754;51.568;5.048;2024-01-06T05:35:35;5.40;;;2.80;;
69534;SDS011;56754;51.568;5.048;2024-01-06T05:38:00;6.22;;;2.83;;
69534;SDS011;56754;51.568;5.048;2024-01-06T05:40:26;6.07;;;2.33;;
69534;SDS011;56754;51.568;5.048;2024-01-06T05:42:51;5.80;;;2.80;;
69534;SDS011;56754;51.568;5.048;2024-01-06T05:45:16;5.35;;;2.70;;
69534;SDS011;56754;51.568;5.048;2024-01-06T05:47:41;5.55;;;2.40;;
69534;SDS011;56754;51.568;5.048;2024-01-06T05:50:06;5.05;;;2.50;;
69534;SDS011;56754;51.568;5.048;2024-01-06T05:52:32;4.80;;;2.40;;
69534;SDS011;56754;51.568;5.048;2024-01-06T05:54:57;6.63;;;2.55;;
69534;SDS011;56754;51.568;5.048;2024-01-06T05:57:22;5.55;;;2.50;;
69534;SDS011;56754;51.568;5.048;2024-01-06T05:59:47;5.43;;;2.30;;
69534;SDS011;56754;51.568;5.048;2024-01-06T06:02:12;4.72;;;2.50;;
69534;SDS011;56754;51.568;5.048;2024-01-06T06:04:37;7.03;;;2.17;;
69534;SDS011;56754;51.568;5.048;2024-01-06T06:07:03;4.50;;;2.22;;
69534;SDS011;56754;51.568;5.048;2024-01-06T06:09:28;4.87;;;2.40;;
69534;SDS011;56754;51.568;5.048;2024-01-06T06:11:53;5.63;;;2.17;;
69534;SDS011;56754;51.568;5.048;2024-01-06T06:14:18;5.07;;;2.80;;
69534;SDS011;56754;51.568;5.048;2024-01-06T06:16:43;5.30;;;2.35;;
69534;SDS011;56754;51.568;5.048;2024-01-06T06:19:08;6.37;;;2.40;;
69534;SDS011;56754;51.568;5.048;2024-01-06T06:21:34;5.87;;;2.60;;
69534;SDS011;56754;51.568;5.048;2024-01-06T06:23:59;5.63;;;2.30;;
69534;SDS011;56754;51.568;5.048;2024-01-06T06:26:24;7.13;;;2.70;;
69534;SDS011;56754;51.568;5.048;2024-01-06T06:28:49;5.07;;;2.30;;
69534;SDS011;56754;51.568;5.048;2024-01-06T06:31:14;7.57;;;2.63;;
69534;SDS011;56754;51.568;5.048;2024-01-06T06:33:39;6.38;;;2.60;;
69534;SDS011;56754;51.568;5.048;2024-01-06T06:36:05;6.70;;;2.77;;
69534;SDS011;56754;51.568;5.048;2024-01-06T06:38:30;5.10;;;2.43;;
69534;SDS011;56754;51.568;5.048;2024-01-06T06:40:55;6.47;;;2.90;;
69534;SDS011;56754;51.568;5.048;2024-01-06T06:43:20;5.80;;;2.70;;
69534;SDS011;56754;51.568;5.048;2024-01-06T06:45:45;5.72;;;2.28;;
69534;SDS011;56754;51.568;5.048;2024-01-06T06:48:11;4.88;;;2.25;;
69534;SDS011;56754;51.568;5.048;2024-01-06T06:50:36;6.38;;;2.80;;
69534;SDS011;56754;51.568;5.048;2024-01-06T06:53:01;6.17;;;2.30;;
69534;SDS011;56754;51.568;5.048;2024-01-06T06:55:26;5.60;;;2.50;;
69534;SDS011;56754;51.568;5.048;2024-01-06T06:57:51;5.40;;;2.90;;
69534;SDS011;56754;51.568;5.048;2024-01-06T07:00:17;6.80;;;3.00;;
69534;SDS011;56754;51.568;5.048;2024-01-06T07:02:42;5.43;;;2.53;;
69534;SDS011;56754;51.568;5.048;2024-01-06T07:05:07;5.37;;;2.33;;
69534;SDS011;56754;51.568;5.048;2024-01-06T07:07:33;6.70;;;2.50;;
69534;SDS011;56754;51.568;5.048;2024-01-06T07:09:58;6.27;;;2.40;;
69534;SDS011;56754;51.568;5.048;2024-01-06T07:15:07;4.97;;;2.55;;
69534;SDS011;56754;51.568;5.048;2024-01-06T07:17:32;4.70;;;2.17;;
69534;SDS011;56754;51.568;5.048;2024-01-06T07:19:58;4.82;;;2.33;;
69534;SDS011;56754;51.568;5.048;2024-01-06T07:22:24;6.43;;;2.00;;
69534;SDS011;56754;51.568;5.048;2024-01-06T07:24:49;4.63;;;2.30;;
69534;SDS011;56754;51.568;5.048;2024-01-06T07:27:14;6.15;;;2.30;;
69534;SDS011;56754;51.568;5.048;2024-01-06T07:29:39;4.77;;;2.10;;
69534;SDS011;56754;51.568;5.048;2024-01-06T07:32:04;4.27;;;2.00;;
69534;SDS011;56754;51.568;5.048;2024-01-06T07:34:30;5.27;;;1.90;;
69534;SDS011;56754;51.568;5.048;2024-01-06T07:36:55;4.43;;;1.77;;
69534;SDS011;56754;51.568;5.048;2024-01-06T07:39:20;6.47;;;2.40;;
69534;SDS011;56754;51.568;5.048;2024-01-06T07:41:45;5.72;;;2.00;;
69534;SDS011;56754;51.568;5.048;2024-01-06T07:44:11;9.55;;;2.67;;
69534;SDS011;56754;51.568;5.048;2024-01-06T07:46:36;6.15;;;2.25;;
69534;SDS011;56754;51.568;5.048;2024-01-06T07:49:01;6.40;;;2.20;;
69534;SDS011;56754;51.568;5.048;2024-01-06T07:51:26;5.17;;;1.97;;
69534;SDS011;56754;51.568;5.048;2024-01-06T07:53:51;6.47;;;2.42;;
69534;SDS011;56754;51.568;5.048;2024-01-06T07:56:16;4.90;;;2.22;;
69534;SDS011;56754;51.568;5.048;2024-01-06T07:58:41;5.55;;;2.30;;
69534;SDS011;56754;51.568;5.048;2024-01-06T08:01:07;4.70;;;2.10;;
69534;SDS011;56754;51.568;5.048;2024-01-06T08:03:32;4.97;;;2.10;;
69534;SDS011;56754;51.568;5.048;2024-01-06T08:05:57;5.78;;;2.15;;
69534;SDS011;56754;51.568;5.048;2024-01-06T08:08:22;6.68;;;2.50;;
69534;SDS011;56754;51.568;5.048;2024-01-06T08:10:47;4.50;;;1.90;;
69534;SDS011;56754;51.568;5.048;2024-01-06T08:13:12;4.60;;;2.13;;
69534;SDS011;56754;51.568;5.048;2024-01-06T08:15:37;5.77;;;2.30;;
69534;SDS011;56754;51.568;5.048;2024-01-06T08:18:03;5.78;;;2.58;;
69534;SDS011;56754;51.568;5.048;2024-01-06T08:20:28;6.50;;;2.70;;
69534;SDS011;56754;51.568;5.048;2024-01-06T08:22:53;6.38;;;2.40;;
69534;SDS011;56754;51.568;5.048;2024-01-06T08:25:18;4.70;;;2.05;;
69534;SDS011;56754;51.568;5.048;2024-01-06T08:27:43;6.05;;;2.63;;
69534;SDS011;56754;51.568;5.048;2024-01-06T08:30:09;5.27;;;2.33;;
69534;SDS011;56754;51.568;5.048;2024-01-06T08:32:34;5.40;;;2.83;;
69534;SDS011;56754;51.568;5.048;2024-01-06T08:34:59;6.97;;;2.88;;
69534;SDS011;56754;51.568;5.048;2024-01-06T08:37:24;5.43;;;2.60;;
69534;SDS011;56754;51.568;5.048;2024-01-06T08:39:49;5.75;;;2.38;;
69534;SDS011;56754;51.568;5.048;2024-01-06T08:42:14;6.43;;;3.22;;
69534;SDS011;56754;51.568;5.048;2024-01-06T08:44:40;6.03;;;2.50;;
69534;SDS011;56754;51.568;5.048;2024-01-06T08:47:05;5.55;;;2.53;;
69534;SDS011;56754;51.568;5.048;2024-01-06T08:49:30;5.50;;;2.37;;
69534;SDS011;56754;51.568;5.048;2024-01-06T08:51:55;5.57;;;2.60;;
69534;SDS011;56754;51.568;5.048;2024-01-06T08:54:20;5.97;;;2.80;;
69534;SDS011;56754;51.568;5.048;2024-01-06T08:56:45;5.23;;;2.00;;
69534;SDS011;56754;51.568;5.048;2024-01-06T08:59:10;5.23;;;1.77;;
69534;SDS011;56754;51.568;5.048;2024-01-06T09:01:36;6.20;;;2.43;;
69534;SDS011;56754;51.568;5.048;2024-01-06T09:04:01;5.80;;;2.20;;
69534;SDS011;56754;51.568;5.048;2024-01-06T09:06:26;4.93;;;2.20;;
69534;SDS011;56754;51.568;5.048;2024-01-06T09:08:52;4.93;;;2.30;;
69534;SDS011;56754;51.568;5.048;2024-01-06T09:11:17;7.07;;;2.53;;
69534;SDS011;56754;51.568;5.048;2024-01-06T09:13:42;5.90;;;2.30;;
69534;SDS011;56754;51.568;5.048;2024-01-06T09:16:07;6.53;;;2.27;;
69534;SDS011;56754;51.568;5.048;2024-01-06T09:18:32;5.03;;;2.22;;
69534;SDS011;56754;51.568;5.048;2024-01-06T09:20:57;5.50;;;2.13;;
69534;SDS011;56754;51.568;5.048;2024-01-06T09:23:23;4.57;;;2.20;;
69534;SDS011;56754;51.568;5.048;2024-01-06T09:25:48;5.53;;;2.30;;
69534;SDS011;56754;51.568;5.048;2024-01-06T09:28:13;6.53;;;2.20;;
69534;SDS011;56754;51.568;5.048;2024-01-06T09:30:38;5.93;;;2.30;;
69534;SDS011;56754;51.568;5.048;2024-01-06T09:33:03;4.30;;;1.90;;
69534;SDS011;56754;51.568;5.048;2024-01-06T09:35:28;4.50;;;2.00;;
69534;SDS011;56754;51.568;5.048;2024-01-06T09:37:53;5.45;;;2.20;;
69534;SDS011;56754;51.568;5.048;2024-01-06T09:40:22;4.57;;;2.10;;
69534;SDS011;56754;51.568;5.048;2024-01-06T09:42:48;4.87;;;2.03;;
69534;SDS011;56754;51.568;5.048;2024-01-06T09:45:13;5.18;;;2.30;;
69534;SDS011;56754;51.568;5.048;2024-01-06T09:47:39;5.70;;;2.20;;
69534;SDS011;56754;51.568;5.048;2024-01-06T09:50:05;5.05;;;2.08;;
69534;SDS011;56754;51.568;5.048;2024-01-06T09:52:32;4.40;;;2.10;;
69534;SDS011;56754;51.568;5.048;2024-01-06T09:54:57;5.07;;;2.15;;
69534;SDS011;56754;51.568;5.048;2024-01-06T09:57:24;4.70;;;2.30;;
69534;SDS011;56754;51.568;5.048;2024-01-06T09:59:49;5.22;;;1.90;;
69534;SDS011;56754;51.568;5.048;2024-01-06T10:02:16;4.77;;;2.03;;
69534;SDS011;56754;51.568;5.048;2024-01-06T10:04:41;6.07;;;2.30;;
69534;SDS011;56754;51.568;5.048;2024-01-06T10:07:06;4.53;;;2.43;;
69534;SDS011;56754;51.568;5.048;2024-01-06T10:09:31;5.25;;;2.05;;
69534;SDS011;56754;51.568;5.048;2024-01-06T10:11:56;4.93;;;2.30;;
69534;SDS011;56754;51.568;5.048;2024-01-06T10:14:23;4.67;;;2.20;;
69534;SDS011;56754;51.568;5.048;2024-01-06T10:16:48;4.30;;;2.10;;
69534;SDS011;56754;51.568;5.048;2024-01-06T10:19:14;4.55;;;2.30;;
69534;SDS011;56754;51.568;5.048;2024-01-06T10:21:39;5.07;;;2.07;;
69534;SDS011;56754;51.568;5.048;2024-01-06T10:24:06;5.40;;;2.40;;
69534;SDS011;56754;51.568;5.048;2024-01-06T10:26:32;5.77;;;2.10;;
69534;SDS011;56754;51.568;5.048;2024-01-06T10:29:00;4.93;;;2.40;;
69534;SDS011;56754;51.568;5.048;2024-01-06T10:31:25;4.20;;;1.90;;
69534;SDS011;56754;51.568;5.048;2024-01-06T10:33:50;6.20;;;2.27;;
69534;SDS011;56754;51.568;5.048;2024-01-06T10:36:15;5.67;;;2.20;;
69534;SDS011;56754;51.568;5.048;2024-01-06T10:38:41;5.53;;;2.00;;
69534;SDS011;56754;51.568;5.048;2024-01-06T10:41:06;5.23;;;2.30;;
69534;SDS011;56754;51.568;5.048;2024-01-06T10:43:31;4.75;;;2.03;;
69534;SDS011;56754;51.568;5.048;2024-01-06T10:45:57;5.87;;;2.13;;
69534;SDS011;56754;51.568;5.048;2024-01-06T10:48:26;6.32;;;1.95;;
69534;SDS011;56754;51.568;5.048;2024-01-06T10:50:54;4.95;;;1.83;;
69534;SDS011;56754;51.568;5.048;2024-01-06T10:53:20;5.15;;;1.90;;
69534;SDS011;56754;51.568;5.048;2024-01-06T10:55:45;5.23;;;2.20;;
69534;SDS011;56754;51.568;5.048;2024-01-06T10:58:11;5.47;;;2.05;;
69534;SDS011;56754;51.568;5.048;2024-01-06T11:00:37;5.95;;;2.00;;
69534;SDS011;56754;51.568;5.048;2024-01-06T11:03:02;5.27;;;2.10;;
69534;SDS011;56754;51.568;5.048;2024-01-06T11:05:29;6.32;;;2.30;;
69534;SDS011;56754;51.568;5.048;2024-01-06T11:07:54;5.87;;;2.30;;
69534;SDS011;56754;51.568;5.048;2024-01-06T11:10:20;4.47;;;2.10;;
69534;SDS011;56754;51.568;5.048;2024-01-06T11:12:45;5.40;;;2.30;;
69534;SDS011;56754;51.568;5.048;2024-01-06T11:15:10;5.10;;;2.00;;
69534;SDS011;56754;51.568;5.048;2024-01-06T11:17:55;5.18;;;1.90;;
69534;SDS011;56754;51.568;5.048;2024-01-06T11:20:24;5.03;;;1.77;;
69534;SDS011;56754;51.568;5.048;2024-01-06T11:22:50;5.72;;;2.00;;
69534;SDS011;56754;51.568;5.048;2024-01-06T11:25:19;5.10;;;1.90;;
69534;SDS011;56754;51.568;5.048;2024-01-06T11:27:45;4.68;;;1.80;;
69534;SDS011;56754;51.568;5.048;2024-01-06T11:30:20;4.72;;;2.05;;
69534;SDS011;56754;51.568;5.048;2024-01-06T11:32:45;5.40;;;2.03;;
69534;SDS011;56754;51.568;5.048;2024-01-06T11:35:11;4.33;;;2.00;;
69534;SDS011;56754;51.568;5.048;2024-01-06T11:42:33;5.28;;;1.70;;
69534;SDS011;56754;51.568;5.048;2024-01-06T11:45:01;4.63;;;1.73;;
69534;SDS011;56754;51.568;5.048;2024-01-06T11:47:26;6.40;;;2.25;;
69534;SDS011;56754;51.568;5.048;2024-01-06T11:49:53;5.70;;;1.90;;
69534;SDS011;56754;51.568;5.048;2024-01-06T11:52:19;5.13;;;1.90;;
69534;SDS011;56754;51.568;5.048;2024-01-06T11:54:44;4.97;;;2.20;;
69534;SDS011;56754;51.568;5.048;2024-01-06T11:57:10;4.72;;;1.90;;
69534;SDS011;56754;51.568;5.048;2024-01-06T11:59:35;3.90;;;1.80;;
69534;SDS011;56754;51.568;5.048;2024-01-06T12:02:00;6.35;;;2.10;;
69534;SDS011;56754;51.568;5.048;2024-01-06T12:04:25;5.17;;;1.70;;
69534;SDS011;56754;51.568;5.048;2024-01-06T12:06:50;3.63;;;1.50;;
69534;SDS011;56754;51.568;5.048;2024-01-06T12:09:16;4.78;;;1.70;;
69534;SDS011;56754;51.568;5.048;2024-01-06T12:11:41;5.15;;;2.00;;
69534;SDS011;56754;51.568;5.048;2024-01-06T12:14:07;4.50;;;1.90;;
69534;SDS011;56754;51.568;5.048;2024-01-06T12:16:35;5.17;;;1.93;;
69534;SDS011;56754;51.568;5.048;2024-01-06T12:19:01;4.90;;;1.83;;
69534;SDS011;56754;51.568;5.048;2024-01-06T12:21:26;5.20;;;1.80;;
69534;SDS011;56754;51.568;5.048;2024-01-06T12:23:52;5.07;;;1.70;;
69534;SDS011;56754;51.568;5.048;2024-01-06T12:26:17;4.63;;;1.83;;
69534;SDS011;56754;51.568;5.048;2024-01-06T12:28:46;4.27;;;1.37;;
69534;SDS011;56754;51.568;5.048;2024-01-06T12:31:11;4.18;;;1.70;;
69534;SDS011;56754;51.568;5.048;2024-01-06T12:33:36;4.30;;;1.77;;
69534;SDS011;56754;51.568;5.048;2024-01-06T12:36:01;4.03;;;1.63;;
69534;SDS011;56754;51.568;5.048;2024-01-06T12:38:26;5.73;;;1.90;;
69534;SDS011;56754;51.568;5.048;2024-01-06T12:40:52;4.97;;;1.63;;
69534;SDS011;56754;51.568;5.048;2024-01-06T12:43:17;5.10;;;1.70;;
69534;SDS011;56754;51.568;5.048;2024-01-06T12:45:42;5.63;;;2.15;;
69534;SDS011;56754;51.568;5.048;2024-01-06T12:48:07;4.65;;;2.00;;
69534;SDS011;56754;51.568;5.048;2024-01-06T12:50:32;4.85;;;1.80;;
69534;SDS011;56754;51.568;5.048;2024-01-06T12:52:57;5.55;;;2.10;;
69534;SDS011;56754;51.568;5.048;2024-01-06T12:55:22;6.28;;;2.30;;
69534;SDS011;56754;51.568;5.048;2024-01-06T12:57:48;4.47;;;2.00;;
69534;SDS011;56754;51.568;5.048;2024-01-06T13:00:13;5.23;;;2.20;;
69534;SDS011;56754;51.568;5.048;2024-01-06T13:02:38;4.40;;;1.93;;
69534;SDS011;56754;51.568;5.048;2024-01-06T13:05:04;4.97;;;1.95;;
69534;SDS011;56754;51.568;5.048;2024-01-06T13:07:29;5.10;;;2.10;;
69534;SDS011;56754;51.568;5.048;2024-01-06T13:09:54;5.93;;;2.05;;
69534;SDS011;56754;51.568;5.048;2024-01-06T13:12:19;5.80;;;2.17;;
69534;SDS011;56754;51.568;5.048;2024-01-06T13:14:45;5.40;;;2.23;;
69534;SDS011;56754;51.568;5.048;2024-01-06T13:17:10;4.77;;;2.20;;
69534;SDS011;56754;51.568;5.048;2024-01-06T13:19:35;5.50;;;1.80;;
69534;SDS011;56754;51.568;5.048;2024-01-06T13:22:00;4.10;;;1.87;;
69534;SDS011;56754;51.568;5.048;2024-01-06T13:24:25;5.67;;;2.40;;
69534;SDS011;56754;51.568;5.048;2024-01-06T13:26:50;5.90;;;1.90;;
69534;SDS011;56754;51.568;5.048;2024-01-06T13:29:15;5.70;;;1.80;;
69534;SDS011;56754;51.568;5.048;2024-01-06T13:31:41;4.73;;;2.03;;
69534;SDS011;56754;51.568;5.048;2024-01-06T13:34:06;4.90;;;1.90;;
69534;SDS011;56754;51.568;5.048;2024-01-06T13:36:31;4.70;;;2.00;;
69534;SDS011;56754;51.568;5.048;2024-01-06T13:38:56;6.63;;;1.93;;
69534;SDS011;56754;51.568;5.048;2024-01-06T13:41:21;5.13;;;1.83;;
69534;SDS011;56754;51.568;5.048;2024-01-06T13:43:46;4.67;;;1.80;;
69534;SDS011;56754;51.568;5.048;2024-01-06T13:46:12;4.50;;;1.90;;
69534;SDS011;56754;51.568;5.048;2024-01-06T13:48:37;4.70;;;1.97;;
69534;SDS011;56754;51.568;5.048;2024-01-06T13:51:02;4.47;;;1.90;;
69534;SDS011;56754;51.568;5.048;2024-01-06T13:53:27;4.90;;;1.90;;
69534;SDS011;56754;51.568;5.048;2024-01-06T13:55:52;5.20;;;2.10;;
69534;SDS011;56754;51.568;5.048;2024-01-06T13:58:18;5.00;;;2.00;;
69534;SDS011;56754;51.568;5.048;2024-01-06T14:00:43;4.47;;;1.88;;
69534;SDS011;56754;51.568;5.048;2024-01-06T14:03:08;5.00;;;2.23;;
69534;SDS011;56754;51.568;5.048;2024-01-06T14:05:34;6.43;;;2.10;;
69534;SDS011;56754;51.568;5.048;2024-01-06T14:07:59;4.93;;;2.00;;
69534;SDS011;56754;51.568;5.048;2024-01-06T14:10:24;5.37;;;2.20;;
69534;SDS011;56754;51.568;5.048;2024-01-06T14:12:49;4.65;;;2.20;;
69534;SDS011;56754;51.568;5.048;2024-01-06T14:15:15;4.43;;;1.92;;
69534;SDS011;56754;51.568;5.048;2024-01-06T14:17:40;5.10;;;2.20;;
69534;SDS011;56754;51.568;5.048;2024-01-06T14:20:05;7.43;;;2.30;;
69534;SDS011;56754;51.568;5.048;2024-01-06T14:22:30;5.27;;;2.17;;
69534;SDS011;56754;51.568;5.048;2024-01-06T14:24:55;5.80;;;2.30;;
69534;SDS011;56754;51.568;5.048;2024-01-06T14:27:20;5.10;;;2.22;;
69534;SDS011;56754;51.568;5.048;2024-01-06T14:29:46;5.93;;;2.63;;
69534;SDS011;56754;51.568;5.048;2024-01-06T14:32:11;4.73;;;2.13;;
69534;SDS011;56754;51.568;5.048;2024-01-06T14:34:36;6.27;;;2.20;;
69534;SDS011;56754;51.568;5.048;2024-01-06T14:37:01;5.25;;;2.17;;
69534;SDS011;56754;51.568;5.048;2024-01-06T14:39:26;4.60;;;1.93;;
69534;SDS011;56754;51.568;5.048;2024-01-06T14:41:51;5.63;;;2.22;;